• Join FlightAware (Why Join?)
  • Login
  • US Flag 
09:07AM EDT


 

Airport Tracker/Info


-or-


 

Live Flight TrackerFlight Track Log ✈ N5180A ✈ 14-Aug-2013 ✈ KMKC - KOMA

Flight Track Log - Related Links

Times and Time Zones

All times are in EDT time to prevent confusion due to time zone crossing. See the N5180A flight status page for this flight to view local times or setup timezone preferences in your user account.

Time Position Orientation Groundspeed Altitude Reporting Facility
EDT Latitude Longitude Course Direction KTS MPH feet Rate Location/Type
03:22PM 39.1000 -94.6000 303° West 60 69 1,200  Level Kansas City TRACON
03:23PM 39.1167 -94.6333 303° West 70 81 1,700 420 Climbing Kansas City TRACON
03:24PM 39.1300 -94.6464 323° Northwest 72 83 2,100 300 Climbing Kansas City Center
03:25PM 39.1356 -94.6711 286° West 75 86 2,300 180 Climbing Kansas City Center
03:26PM 39.1411 -94.6942 287° West 72 83 2,500 60 Climbing Kansas City Center
03:27PM 39.1486 -94.7275 286° West 85 98 2,500  Level Kansas City Center
03:28PM 39.1575 -94.7553 292° West 88 101 2,500  Level Kansas City Center
03:29PM 39.1708 -94.7853 300° West 86 99 2,500  Level Kansas City Center
03:30PM 39.1794 -94.8136 291° West 88 101 2,600 120 Climbing Kansas City Center
03:31PM 39.1894 -94.8481 291° West 92 106 2,800  Climbing Kansas City Center
03:32PM 39.1992 -94.8783 293° West 95 109 2,700 -240 Descending Kansas City Center
03:33PM 39.2228 -94.8981 327° Northwest 92 106 2,400 -120 Descending Kansas City Center
03:34PM 39.2456 -94.9111 336° Northwest 93 107 2,500 60 Climbing Kansas City Center
03:35PM 39.2717 -94.9222 342° North 87 100 2,600 120 Climbing Kansas City Center
03:36PM 39.2939 -94.9322 341° North 89 102 2,800 60 Climbing Kansas City Center
03:37PM 39.3211 -94.9458 339° North 92 106 2,800 -120 Level Kansas City Center
03:38PM 39.3467 -94.9561 343° North 100 115 2,600 -180 Descending Kansas City Center
03:39PM 39.3750 -94.9686 341° North 98 113 2,500 -60 Descending Kansas City Center
03:40PM 39.3975 -94.9794 340° North 91 105 2,500  Level Kansas City Center
03:41PM 39.4247 -94.9911 342° North 93 107 2,500  Level Kansas City Center
03:42PM 39.4461 -95.0100 326° Northwest 97 112 2,500  Level Kansas City Center
03:43PM 39.4700 -95.0336 323° Northwest 98 113 2,500  Level Kansas City Center
03:44PM 39.4900 -95.0525 324° Northwest 96 110 2,500 -60 Level Kansas City Center
03:45PM 39.5119 -95.0761 320° Northwest 93 107 2,400 -60 Descending Kansas City Center
03:46PM 39.5311 -95.0942 324° Northwest 91 105 2,400  Level Kansas City Center
03:47PM 39.5594 -95.0981 354° North 91 105 2,500 60 Climbing Kansas City Center
03:48PM 39.5817 -95.0828 28° Northeast 91 105 2,600  Climbing Kansas City Center
03:49PM 39.6036 -95.0672 29° Northeast 94 108 2,500  Descending Kansas City Center
03:51PM 39.6281 -95.0506 28° Northeast 90 104 2,600 120 Climbing Kansas City Center
03:52PM 39.6500 -95.0358 27° Northeast 92 106 2,800  Climbing Kansas City Center
03:53PM 39.6736 -95.0122 38° Northeast 96 110 2,600 -180 Descending Kansas City Center
03:54PM 39.6933 -94.9931 37° Northeast 94 108 2,500 -60 Descending Kansas City Center
03:55PM 39.7097 -94.9622 55° Northeast 92 106 2,500  Level Kansas City Center
03:56PM 39.7136 -94.9328 80° East 88 101 2,500 60 Level Kansas City Center
03:57PM 39.7147 -94.8989 88° East 85 98 2,700 60 Climbing Kansas City Center
03:58PM 39.7194 -94.8706 78° East 84 97 2,700 -60 Level Kansas City Center
03:59PM 39.7406 -94.8464 41° Northeast 93 107 2,600 -60 Descending Kansas City Center
04:00PM 39.7656 -94.8450 North 96 110 2,600 120 Level Kansas City Center
04:01PM 39.7903 -94.8486 354° North 82 94 2,900 240 Climbing Kansas City Center
04:02PM 39.8086 -94.8600 334° Northwest 75 86 3,200 240 Climbing Kansas City Center
04:03PM 39.8311 -94.8689 343° North 75 86 3,500  Climbing Kansas City Center
04:04PM 39.8506 -94.8861 326° Northwest 88 101 3,300 -300 Descending Kansas City Center
04:05PM 39.8714 -94.9136 315° West 93 107 2,900 -360 Descending Kansas City Center
04:06PM 39.8844 -94.9422 301° West 95 109 2,600 -240 Descending Kansas City Center
04:07PM 39.8911 -94.9717 286° West 91 105 2,500  Descending Kansas City Center
04:08PM 39.8917 -95.0086 271° West 91 105 2,600  Climbing Kansas City Center
04:09PM 39.8844 -95.0403 253° West 94 108 2,500 -120 Descending Kansas City Center
04:10PM 39.8775 -95.0756 256° West 92 106 2,400  Descending Kansas City Center
04:11PM 39.8808 -95.1078 278° West 94 108 2,500  Climbing Kansas City Center
04:12PM 39.8919 -95.1417 293° West 93 107 2,500  Level Kansas City Center
04:13PM 39.9044 -95.1683 301° West 91 105 2,600  Climbing Kansas City Center
04:14PM 39.9192 -95.1997 301° West 91 105 2,600  Level Kansas City Center
04:15PM 39.9344 -95.2258 307° West 94 108 2,600  Level Kansas City Center